createdAt,value
2018-09-29T00:00:23.439Z,1022.87
2018-09-29T00:01:23.385Z,1022.87
2018-09-29T00:02:23.341Z,1022.82
2018-09-29T00:03:23.297Z,1022.82
2018-09-29T00:04:23.248Z,1022.84
2018-09-29T00:05:23.203Z,1022.86
2018-09-29T00:06:23.155Z,1022.88
2018-09-29T00:07:23.109Z,1022.84
2018-09-29T00:08:23.066Z,1022.86
2018-09-29T00:09:23.018Z,1022.89
2018-09-29T00:10:23.034Z,1022.93
2018-09-29T00:11:22.926Z,1022.95
2018-09-29T00:12:22.881Z,1022.97
2018-09-29T00:13:22.835Z,1023.02
2018-09-29T00:14:22.788Z,1022.99
2018-09-29T00:15:22.742Z,1023.00
2018-09-29T00:16:22.714Z,1023.02
2018-09-29T00:17:22.650Z,1023.01
2018-09-29T00:18:22.607Z,1023.03
2018-09-29T00:19:22.560Z,1023.03
2018-09-29T00:20:22.513Z,1023.01
2018-09-29T00:21:22.467Z,1023.03
2018-09-29T00:22:22.421Z,1023.03
2018-09-29T00:23:22.376Z,1023.04
2018-09-29T00:24:22.329Z,1022.97
2018-09-29T00:25:22.286Z,1022.96
2018-09-29T00:26:22.237Z,1023.00
2018-09-29T00:27:22.192Z,1023.00
2018-09-29T00:28:22.145Z,1023.01
2018-09-29T00:29:22.100Z,1023.00
2018-09-29T00:30:22.053Z,1023.04
2018-09-29T00:31:22.007Z,1023.05
2018-09-29T00:32:21.963Z,1023.06
2018-09-29T00:33:21.916Z,1023.03
2018-09-29T00:34:21.869Z,1023.03
2018-09-29T00:35:21.824Z,1023.06
2018-09-29T00:36:21.778Z,1023.06
2018-09-29T00:37:21.733Z,1023.02
2018-09-29T00:38:21.690Z,1023.02
2018-09-29T00:39:21.640Z,1023.06
2018-09-29T00:40:21.596Z,1023.06
2018-09-29T00:41:21.548Z,1023.05
2018-09-29T00:42:21.505Z,1023.07
2018-09-29T00:43:21.457Z,1023.09
2018-09-29T00:44:21.411Z,1023.12
2018-09-29T00:45:21.365Z,1023.13
2018-09-29T00:46:21.318Z,1023.14
2018-09-29T00:47:21.272Z,1023.15
2018-09-29T00:48:21.229Z,1023.14
2018-09-29T00:49:21.181Z,1023.16
2018-09-29T00:50:21.137Z,1023.15
2018-09-29T00:51:21.088Z,1023.18
2018-09-29T00:52:21.043Z,1023.17
2018-09-29T00:53:20.998Z,1023.18
2018-09-29T00:54:20.951Z,1023.15
2018-09-29T00:55:20.905Z,1023.20
2018-09-29T00:56:20.859Z,1023.20
2018-09-29T00:57:20.814Z,1023.19
2018-09-29T00:58:20.767Z,1023.25
2018-09-29T00:59:20.721Z,1023.25
2018-09-29T01:00:20.676Z,1023.25
2018-09-29T01:01:20.629Z,1023.25
2018-09-29T01:02:20.583Z,1023.28
2018-09-29T01:03:20.540Z,1023.28
2018-09-29T01:04:20.492Z,1023.33
2018-09-29T01:05:20.448Z,1023.33
2018-09-29T01:06:20.402Z,1023.33
2018-09-29T01:07:20.353Z,1023.33
2018-09-29T01:08:20.313Z,1023.31
2018-09-29T01:09:20.263Z,1023.27
2018-09-29T01:10:20.215Z,1023.27
2018-09-29T01:11:20.173Z,1023.30
2018-09-29T01:12:20.124Z,1023.30
2018-09-29T01:13:20.079Z,1023.29
2018-09-29T01:14:20.032Z,1023.27
2018-09-29T01:15:19.986Z,1023.23
2018-09-29T01:16:19.940Z,1023.23
2018-09-29T01:17:19.895Z,1023.21
2018-09-29T01:18:19.847Z,1023.19
2018-09-29T01:19:19.802Z,1023.19
2018-09-29T01:20:19.757Z,1023.22
2018-09-29T01:21:19.711Z,1023.24
2018-09-29T01:22:19.663Z,1023.22
2018-09-29T01:23:19.618Z,1023.19
2018-09-29T01:24:19.572Z,1023.18
2018-09-29T01:25:19.527Z,1023.18
2018-09-29T01:26:19.491Z,1023.16
2018-09-29T01:27:19.435Z,1023.15
2018-09-29T01:28:19.390Z,1023.13
2018-09-29T01:29:19.343Z,1023.19
2018-09-29T01:30:19.296Z,1023.15
2018-09-29T01:31:19.250Z,1023.13
2018-09-29T01:32:19.305Z,1023.14
2018-09-29T01:33:19.159Z,1023.15
2018-09-29T01:34:19.113Z,1023.16
2018-09-29T01:35:19.067Z,1023.13
2018-09-29T01:36:19.021Z,1023.11
2018-09-29T01:37:18.975Z,1023.11
2018-09-29T01:38:18.928Z,1023.12
2018-09-29T01:39:18.883Z,1023.13
2018-09-29T01:40:18.837Z,1023.15
2018-09-29T01:41:18.792Z,1023.16
2018-09-29T01:42:18.744Z,1023.24
2018-09-29T01:43:18.699Z,1023.23
2018-09-29T01:44:18.653Z,1023.24
2018-09-29T01:45:18.610Z,1023.25
2018-09-29T01:46:18.561Z,1023.27
2018-09-29T01:47:18.518Z,1023.31
2018-09-29T01:48:18.469Z,1023.31
2018-09-29T01:49:18.424Z,1023.30
2018-09-29T01:50:18.377Z,1023.33
2018-09-29T01:51:18.331Z,1023.31
2018-09-29T01:52:18.285Z,1023.34
2018-09-29T01:53:18.242Z,1023.36
2018-09-29T01:54:18.192Z,1023.39
2018-09-29T01:55:18.147Z,1023.42
2018-09-29T01:56:18.101Z,1023.42
2018-09-29T01:57:18.056Z,1023.42
2018-09-29T01:58:18.009Z,1023.44
2018-09-29T01:59:17.963Z,1023.44
2018-09-29T02:00:17.917Z,1023.49
2018-09-29T02:01:17.875Z,1023.45
2018-09-29T02:02:17.828Z,1023.45
2018-09-29T02:03:17.780Z,1023.47
2018-09-29T02:04:17.733Z,1023.44
2018-09-29T02:05:17.688Z,1023.41
2018-09-29T02:06:17.641Z,1023.39
2018-09-29T02:07:17.595Z,1023.35
2018-09-29T02:08:17.549Z,1023.37
2018-09-29T02:09:17.831Z,1023.39
2018-09-29T02:10:17.773Z,1023.39
2018-09-29T02:11:17.728Z,1023.41
2018-09-29T02:12:17.682Z,1023.39
2018-09-29T02:13:17.319Z,1023.39
2018-09-29T02:14:17.274Z,1023.36
2018-09-29T02:15:17.227Z,1023.33
2018-09-29T02:16:17.181Z,1023.36
2018-09-29T02:17:17.135Z,1023.33
2018-09-29T02:18:17.090Z,1023.33
2018-09-29T02:19:17.044Z,1023.38
2018-09-29T02:20:16.997Z,1023.36
2018-09-29T02:21:16.951Z,1023.35
2018-09-29T02:22:16.905Z,1023.34
2018-09-29T02:23:16.859Z,1023.36
2018-09-29T02:24:16.812Z,1023.38
2018-09-29T02:25:16.767Z,1023.39
2018-09-29T02:26:16.720Z,1023.41
2018-09-29T02:27:16.674Z,1023.41
2018-09-29T02:28:16.629Z,1023.41
2018-09-29T02:29:16.583Z,1023.41
2018-09-29T02:30:16.537Z,1023.44
2018-09-29T02:31:16.493Z,1023.49
2018-09-29T02:32:16.445Z,1023.48
2018-09-29T02:33:16.400Z,1023.49
2018-09-29T02:34:16.352Z,1023.48
2018-09-29T02:35:16.307Z,1023.46
2018-09-29T02:36:16.261Z,1023.50
2018-09-29T02:37:16.218Z,1023.49
2018-09-29T02:38:16.168Z,1023.52
2018-09-29T02:39:16.123Z,1023.53
2018-09-29T02:40:16.090Z,1023.52
2018-09-29T02:41:16.032Z,1023.52
2018-09-29T02:42:15.984Z,1023.58
2018-09-29T02:43:15.938Z,1023.57
2018-09-29T02:44:15.893Z,1023.56
2018-09-29T02:45:15.847Z,1023.59
2018-09-29T02:46:15.800Z,1023.62
2018-09-29T02:47:15.754Z,1023.62
2018-09-29T02:48:15.710Z,1023.59
2018-09-29T02:49:15.662Z,1023.56
2018-09-29T02:50:15.615Z,1023.59
2018-09-29T02:51:15.569Z,1023.64
2018-09-29T02:52:15.524Z,1023.67
2018-09-29T02:53:15.478Z,1023.67
2018-09-29T02:54:15.431Z,1023.67
2018-09-29T02:55:15.386Z,1023.71
2018-09-29T02:56:15.339Z,1023.67
2018-09-29T02:57:15.294Z,1023.72
2018-09-29T02:58:15.247Z,1023.71
2018-09-29T02:59:15.205Z,1023.72
2018-09-29T03:00:15.156Z,1023.74
2018-09-29T03:01:15.110Z,1023.71
2018-09-29T03:02:15.063Z,1023.72
2018-09-29T03:03:15.018Z,1023.73
2018-09-29T03:04:14.971Z,1023.73
2018-09-29T03:05:14.925Z,1023.73
2018-09-29T03:06:14.879Z,1023.75
2018-09-29T03:07:14.935Z,1023.71
2018-09-29T03:08:14.790Z,1023.74
2018-09-29T03:09:14.741Z,1023.77
2018-09-29T03:10:14.694Z,1023.75
2018-09-29T03:11:14.649Z,1023.77
2018-09-29T03:12:14.603Z,1023.76
2018-09-29T03:13:14.558Z,1023.74
2018-09-29T03:14:14.510Z,1023.71
2018-09-29T03:15:14.464Z,1023.70
2018-09-29T03:16:14.419Z,1023.70
2018-09-29T03:17:14.373Z,1023.66
2018-09-29T03:18:14.326Z,1023.68
2018-09-29T03:19:14.341Z,1023.68
2018-09-29T03:20:14.235Z,1023.74
2018-09-29T03:21:14.189Z,1023.72
2018-09-29T03:22:14.142Z,1023.73
2018-09-29T03:23:14.252Z,1023.75
2018-09-29T03:24:14.050Z,1023.73
2018-09-29T03:25:14.005Z,1023.75
2018-09-29T03:26:13.958Z,1023.73
2018-09-29T03:27:13.919Z,1023.73
2018-09-29T03:28:13.866Z,1023.71
2018-09-29T03:29:13.820Z,1023.77
2018-09-29T03:30:13.773Z,1023.77
2018-09-29T03:31:13.782Z,1023.78
2018-09-29T03:32:13.682Z,1023.80
2018-09-29T03:33:13.635Z,1023.78
2018-09-29T03:34:13.589Z,1023.81
2018-09-29T03:35:13.543Z,1023.82
2018-09-29T03:36:13.497Z,1023.82
2018-09-29T03:37:13.451Z,1023.83
2018-09-29T03:38:13.411Z,1023.88
2018-09-29T03:39:13.358Z,1023.87
2018-09-29T03:40:13.313Z,1023.90
2018-09-29T03:41:13.266Z,1023.87
2018-09-29T03:42:13.220Z,1023.90
2018-09-29T03:43:13.174Z,1023.89
2018-09-29T03:44:13.129Z,1023.89
2018-09-29T03:45:13.083Z,1023.87
2018-09-29T03:46:13.036Z,1023.88
2018-09-29T03:47:13.090Z,1023.90
2018-09-29T03:48:12.944Z,1023.88
2018-09-29T03:49:12.899Z,1023.89
2018-09-29T03:50:12.856Z,1023.89
2018-09-29T03:51:12.806Z,1023.92
2018-09-29T03:52:12.760Z,1023.91
2018-09-29T03:53:12.716Z,1023.93
2018-09-29T03:54:12.667Z,1023.94
2018-09-29T03:55:12.621Z,1023.94
2018-09-29T03:56:12.576Z,1023.92
2018-09-29T03:57:12.532Z,1023.92
2018-09-29T03:58:12.483Z,1023.93
2018-09-29T03:59:12.439Z,1023.99
2018-09-29T04:00:12.391Z,1023.94
2018-09-29T04:01:12.345Z,1023.97
2018-09-29T04:02:12.299Z,1023.96
2018-09-29T04:03:12.252Z,1023.99
2018-09-29T04:04:12.207Z,1023.99
2018-09-29T04:05:12.162Z,1023.98
2018-09-29T04:06:12.118Z,1023.96
2018-09-29T04:07:12.075Z,1024.00
2018-09-29T04:08:12.023Z,1024.00
2018-09-29T04:09:11.977Z,1024.02
2018-09-29T04:10:11.930Z,1024.02
2018-09-29T04:11:11.884Z,1024.04
2018-09-29T04:12:11.839Z,1024.04
2018-09-29T04:13:11.796Z,1024.10
2018-09-29T04:14:11.745Z,1024.06
2018-09-29T04:15:11.700Z,1024.07
2018-09-29T04:16:11.707Z,1024.10
2018-09-29T04:17:11.608Z,1024.13
2018-09-29T04:18:11.560Z,1024.13
2018-09-29T04:19:11.515Z,1024.14
2018-09-29T04:20:11.469Z,1024.12
2018-09-29T04:21:11.423Z,1024.12
2018-09-29T04:22:11.378Z,1024.13
2018-09-29T04:23:11.330Z,1024.12
2018-09-29T04:24:11.287Z,1024.11
2018-09-29T04:25:11.238Z,1024.13
2018-09-29T04:26:11.196Z,1024.11
2018-09-29T04:27:11.146Z,1024.12
2018-09-29T04:28:11.100Z,1024.12
2018-09-29T04:29:11.054Z,1024.16
2018-09-29T04:30:11.007Z,1024.20
2018-09-29T04:31:10.962Z,1024.21
2018-09-29T04:32:10.915Z,1024.20
2018-09-29T04:33:10.871Z,1024.19
2018-09-29T04:34:10.822Z,1024.23
2018-09-29T04:35:10.784Z,1024.23
2018-09-29T04:36:10.731Z,1024.26
2018-09-29T04:37:10.685Z,1024.26
2018-09-29T04:38:10.641Z,1024.27
2018-09-29T04:39:10.601Z,1024.23
2018-09-29T04:40:10.548Z,1024.26
2018-09-29T04:41:10.501Z,1024.20
2018-09-29T04:42:10.454Z,1024.24
2018-09-29T04:43:10.412Z,1024.22
2018-09-29T04:44:10.362Z,1024.26
2018-09-29T04:45:10.316Z,1024.23
2018-09-29T04:46:10.269Z,1024.25
2018-09-29T04:47:10.223Z,1024.21
2018-09-29T04:48:10.177Z,1024.18
2018-09-29T04:49:10.174Z,1024.23
2018-09-29T04:50:10.084Z,1024.20
2018-09-29T04:51:10.039Z,1024.21
2018-09-29T04:52:09.993Z,1024.22
2018-09-29T04:53:09.947Z,1024.23
2018-09-29T04:54:09.900Z,1024.22
2018-09-29T04:55:09.854Z,1024.23
2018-09-29T04:56:09.808Z,1024.27
2018-09-29T04:57:09.762Z,1024.23
2018-09-29T04:58:09.716Z,1024.24
2018-09-29T04:59:09.670Z,1024.23
2018-09-29T05:00:09.624Z,1024.25
2018-09-29T05:01:09.578Z,1024.24
2018-09-29T05:02:09.531Z,1024.28
2018-09-29T05:03:09.535Z,1024.28
2018-09-29T05:04:09.439Z,1024.33
2018-09-29T05:05:09.393Z,1024.34
2018-09-29T05:06:09.349Z,1024.39
2018-09-29T05:07:09.300Z,1024.35
2018-09-29T05:08:09.254Z,1024.41
2018-09-29T05:09:09.208Z,1024.39
2018-09-29T05:10:09.163Z,1024.39
2018-09-29T05:11:09.115Z,1024.39
2018-09-29T05:12:09.070Z,1024.39
2018-09-29T05:13:09.030Z,1024.40
2018-09-29T05:14:08.977Z,1024.39
2018-09-29T05:15:08.937Z,1024.38
2018-09-29T05:16:08.885Z,1024.38
2018-09-29T05:17:08.840Z,1024.38
2018-09-29T05:18:08.793Z,1024.41
2018-09-29T05:19:08.746Z,1024.44
2018-09-29T05:20:08.701Z,1024.44
2018-09-29T05:21:08.660Z,1024.43
2018-09-29T05:22:08.607Z,1024.43
2018-09-29T05:23:08.579Z,1024.40
2018-09-29T05:24:08.516Z,1024.37
2018-09-29T05:25:08.470Z,1024.35
2018-09-29T05:26:08.423Z,1024.34
2018-09-29T05:27:08.377Z,1024.32
2018-09-29T05:28:08.332Z,1024.35
2018-09-29T05:29:08.285Z,1024.37
2018-09-29T05:30:08.239Z,1024.40
2018-09-29T05:31:08.193Z,1024.47
2018-09-29T05:32:08.147Z,1024.45
2018-09-29T05:33:08.100Z,1024.47
2018-09-29T05:34:08.053Z,1024.50
2018-09-29T05:35:08.008Z,1024.52
2018-09-29T05:36:07.962Z,1024.56
2018-09-29T05:37:07.916Z,1024.61
2018-09-29T05:38:07.869Z,1024.60
2018-09-29T05:39:07.823Z,1024.64
2018-09-29T05:40:07.778Z,1024.61
2018-09-29T05:41:07.733Z,1024.62
2018-09-29T05:42:07.684Z,1024.60
2018-09-29T05:43:07.639Z,1024.60
2018-09-29T05:44:07.592Z,1024.61
2018-09-29T05:45:07.546Z,1024.63
2018-09-29T05:46:07.504Z,1024.60
2018-09-29T05:47:07.454Z,1024.60
2018-09-29T05:48:07.417Z,1024.62
2018-09-29T05:49:07.363Z,1024.57
2018-09-29T05:50:07.315Z,1024.61
2018-09-29T05:51:07.270Z,1024.58
2018-09-29T05:52:07.224Z,1024.63
2018-09-29T05:53:07.180Z,1024.60
2018-09-29T05:54:07.131Z,1024.61
2018-09-29T05:55:07.084Z,1024.64
2018-09-29T05:56:07.039Z,1024.65
2018-09-29T05:57:06.993Z,1024.66
2018-09-29T05:58:06.946Z,1024.69
2018-09-29T05:59:06.900Z,1024.69
2018-09-29T06:00:06.960Z,1024.66
2018-09-29T06:01:06.815Z,1024.68
2018-09-29T06:02:07.078Z,1024.69
2018-09-29T06:03:06.715Z,1024.68
2018-09-29T06:04:06.669Z,1024.72
2018-09-29T06:05:06.624Z,1024.73
2018-09-29T06:06:06.577Z,1024.75
2018-09-29T06:07:06.633Z,1024.78
2018-09-29T06:08:06.487Z,1024.74
2018-09-29T06:09:06.440Z,1024.74
2018-09-29T06:10:06.400Z,1024.72
2018-09-29T06:11:06.346Z,1024.71
2018-09-29T06:12:06.300Z,1024.68
2018-09-29T06:13:06.302Z,1024.67
2018-09-29T06:14:06.207Z,1024.64
2018-09-29T06:15:06.161Z,1024.63
2018-09-29T06:16:06.116Z,1024.69
2018-09-29T06:17:06.072Z,1024.68
2018-09-29T06:18:06.023Z,1024.70
2018-09-29T06:19:05.976Z,1024.72
2018-09-29T06:20:05.931Z,1024.71
2018-09-29T06:21:05.885Z,1024.75
2018-09-29T06:22:05.839Z,1024.73
2018-09-29T06:23:05.792Z,1024.79
2018-09-29T06:24:05.746Z,1024.80
2018-09-29T06:25:05.700Z,1024.82
2018-09-29T06:26:05.653Z,1024.85
2018-09-29T06:27:05.607Z,1024.89
2018-09-29T06:28:05.592Z,1024.90
2018-09-29T06:29:05.516Z,1024.92
2018-09-29T06:30:05.469Z,1024.93
2018-09-29T06:31:05.424Z,1024.99
2018-09-29T06:32:05.377Z,1024.95
2018-09-29T06:33:05.331Z,1024.98
2018-09-29T06:34:05.288Z,1024.97
2018-09-29T06:35:05.239Z,1024.99
2018-09-29T06:36:05.192Z,1025.07
2018-09-29T06:37:05.160Z,1025.06
2018-09-29T06:38:05.100Z,1025.07
2018-09-29T06:39:05.054Z,1025.11
2018-09-29T06:40:05.008Z,1025.11
2018-09-29T06:41:04.962Z,1025.13
2018-09-29T06:42:04.915Z,1025.16
2018-09-29T06:43:04.869Z,1025.13
2018-09-29T06:44:04.823Z,1025.19
2018-09-29T06:45:04.780Z,1025.20
2018-09-29T06:46:04.731Z,1025.20
2018-09-29T06:47:04.685Z,1025.27
2018-09-29T06:48:04.663Z,1025.25
2018-09-29T06:49:04.595Z,1025.31
2018-09-29T06:50:04.547Z,1025.32
2018-09-29T06:51:04.501Z,1025.32
2018-09-29T06:52:04.456Z,1025.30
2018-09-29T06:53:04.410Z,1025.32
2018-09-29T06:54:04.363Z,1025.32
2018-09-29T06:55:04.318Z,1025.29
2018-09-29T06:56:04.272Z,1025.34
2018-09-29T06:57:04.231Z,1025.35
2018-09-29T06:58:04.180Z,1025.32
2018-09-29T06:59:04.134Z,1025.35
2018-09-29T07:00:04.090Z,1025.32
2018-09-29T07:01:04.043Z,1025.37
2018-09-29T07:02:03.997Z,1025.33
2018-09-29T07:03:03.983Z,1025.34
2018-09-29T07:04:04.006Z,1025.33
2018-09-29T07:05:03.861Z,1025.32
2018-09-29T07:06:03.814Z,1025.32
2018-09-29T07:07:03.769Z,1025.34
2018-09-29T07:08:03.724Z,1025.33
2018-09-29T07:09:03.678Z,1025.34
2018-09-29T07:10:03.632Z,1025.31
2018-09-29T07:11:03.586Z,1025.31
2018-09-29T07:12:03.542Z,1025.30
2018-09-29T07:13:03.542Z,1025.29
2018-09-29T07:14:03.450Z,1025.25
2018-09-29T07:15:03.406Z,1025.31
2018-09-29T07:16:03.361Z,1025.26
2018-09-29T07:17:03.315Z,1025.25
2018-09-29T07:18:03.275Z,1025.28
2018-09-29T07:19:03.225Z,1025.25
2018-09-29T07:20:03.180Z,1025.20
2018-09-29T07:21:03.134Z,1025.24
2018-09-29T07:22:03.090Z,1025.22
2018-09-29T07:23:03.044Z,1025.22
2018-09-29T07:24:02.999Z,1025.25
2018-09-29T07:25:02.955Z,1025.30
2018-09-29T07:26:02.909Z,1025.28
2018-09-29T07:27:02.867Z,1025.31
2018-09-29T07:28:02.819Z,1025.34
2018-09-29T07:29:02.774Z,1025.32
2018-09-29T07:30:02.729Z,1025.39
2018-09-29T07:31:02.688Z,1025.41
2018-09-29T07:32:02.642Z,1025.44
2018-09-29T07:33:02.596Z,1025.44
2018-09-29T07:34:02.550Z,1025.46
2018-09-29T07:35:02.506Z,1025.42
2018-09-29T07:36:02.463Z,1025.45
2018-09-29T07:37:02.417Z,1025.46
2018-09-29T07:38:02.373Z,1025.45
2018-09-29T07:39:02.332Z,1025.45
2018-09-29T07:40:02.283Z,1025.50
2018-09-29T07:41:02.239Z,1025.48
2018-09-29T07:42:02.195Z,1025.47
2018-09-29T07:43:02.149Z,1025.47
2018-09-29T07:44:02.108Z,1025.46
2018-09-29T07:45:02.063Z,1025.47
2018-09-29T07:46:02.017Z,1025.47
2018-09-29T07:47:01.972Z,1025.47
2018-09-29T07:48:01.928Z,1025.49
2018-09-29T07:49:01.925Z,1025.49
2018-09-29T07:50:01.841Z,1025.45
2018-09-29T07:51:01.798Z,1025.42
2018-09-29T07:52:01.756Z,1025.44
2018-09-29T07:53:01.711Z,1025.38
2018-09-29T07:54:01.663Z,1025.34
2018-09-29T07:55:01.622Z,1025.31
2018-09-29T07:56:01.672Z,1025.34
2018-09-29T07:57:01.532Z,1025.34
2018-09-29T07:58:01.488Z,1025.35
2018-09-29T07:59:01.494Z,1025.32
2018-09-29T08:00:01.400Z,1025.35
2018-09-29T08:01:01.356Z,1025.34
2018-09-29T08:02:01.316Z,1025.35
2018-09-29T08:03:01.268Z,1025.34
2018-09-29T08:04:01.228Z,1025.33
2018-09-29T08:05:01.181Z,1025.35
2018-09-29T08:06:01.136Z,1025.36
2018-09-29T08:07:01.093Z,1025.31
2018-09-29T08:08:01.050Z,1025.31
2018-09-29T08:09:01.010Z,1025.33
2018-09-29T08:10:00.962Z,1025.35
2018-09-29T08:11:00.918Z,1025.38
2018-09-29T08:12:00.876Z,1025.39
2018-09-29T08:13:00.833Z,1025.36
2018-09-29T08:14:00.788Z,1025.38
2018-09-29T08:15:00.745Z,1025.38
2018-09-29T08:16:00.701Z,1025.41
2018-09-29T08:17:00.660Z,1025.40
2018-09-29T08:18:00.615Z,1025.40
2018-09-29T08:19:00.572Z,1025.44
2018-09-29T08:20:00.529Z,1025.44
2018-09-29T08:21:00.486Z,1025.48
2018-09-29T08:22:00.442Z,1025.44
2018-09-29T08:23:00.399Z,1025.46
2018-09-29T08:24:00.355Z,1025.45
2018-09-29T08:25:00.313Z,1025.45
2018-09-29T08:26:00.269Z,1025.48
2018-09-29T08:27:00.226Z,1025.44
2018-09-29T08:28:00.185Z,1025.44
2018-09-29T08:29:00.140Z,1025.43
2018-09-29T08:30:00.096Z,1025.44
2018-09-29T08:31:00.053Z,1025.44
2018-09-29T08:32:00.012Z,1025.47
2018-09-29T08:32:59.967Z,1025.47
2018-09-29T08:33:59.941Z,1025.46
2018-09-29T08:34:59.884Z,1025.44
2018-09-29T08:35:59.840Z,1025.48
2018-09-29T08:36:59.795Z,1025.49
2018-09-29T08:37:59.751Z,1025.47
2018-09-29T08:38:59.710Z,1025.47
2018-09-29T08:39:59.664Z,1025.45
2018-09-29T08:40:59.622Z,1025.44
2018-09-29T08:41:59.579Z,1025.43
2018-09-29T08:42:59.534Z,1025.46
2018-09-29T08:43:59.491Z,1025.40
2018-09-29T08:44:59.554Z,1025.41
2018-09-29T08:45:59.404Z,1025.40
2018-09-29T08:46:59.361Z,1025.44
2018-09-29T08:47:59.322Z,1025.42
2018-09-29T08:48:59.273Z,1025.45
2018-09-29T08:49:59.232Z,1025.48
2018-09-29T08:50:59.185Z,1025.45
2018-09-29T08:51:59.141Z,1025.46
2018-09-29T08:52:59.097Z,1025.45
2018-09-29T08:53:59.053Z,1025.50
2018-09-29T08:54:59.009Z,1025.47
2018-09-29T08:55:58.965Z,1025.51
2018-09-29T08:56:58.921Z,1025.48
2018-09-29T08:57:58.877Z,1025.46
2018-09-29T08:58:58.831Z,1025.45
2018-09-29T08:59:58.787Z,1025.45
2018-09-29T09:00:58.743Z,1025.41
2018-09-29T09:01:58.697Z,1025.37
2018-09-29T09:02:58.653Z,1025.37
2018-09-29T09:03:58.691Z,1025.36
2018-09-29T09:04:58.565Z,1025.40
2018-09-29T09:05:58.519Z,1025.38
2018-09-29T09:06:58.474Z,1025.38
2018-09-29T09:07:58.429Z,1025.40
2018-09-29T09:08:58.385Z,1025.43
2018-09-29T09:09:58.340Z,1025.40
2018-09-29T09:10:58.295Z,1025.44
2018-09-29T09:11:58.250Z,1025.40
2018-09-29T09:12:58.206Z,1025.40
2018-09-29T09:13:58.160Z,1025.38
2018-09-29T09:14:58.115Z,1025.43
2018-09-29T09:15:58.070Z,1025.41
2018-09-29T09:16:58.036Z,1025.45
2018-09-29T09:17:57.979Z,1025.42
2018-09-29T09:18:57.935Z,1025.43
2018-09-29T09:19:57.895Z,1025.44
2018-09-29T09:20:57.848Z,1025.44
2018-09-29T09:21:57.800Z,1025.41
2018-09-29T09:22:57.760Z,1025.38
2018-09-29T09:23:57.755Z,1025.36
2018-09-29T09:24:57.665Z,1025.38
2018-09-29T09:25:57.621Z,1025.39
2018-09-29T09:26:57.574Z,1025.43
2018-09-29T09:27:57.529Z,1025.43
2018-09-29T09:28:57.484Z,1025.40
2018-09-29T09:29:57.511Z,1025.41
2018-09-29T09:30:57.393Z,1025.42
2018-09-29T09:31:57.348Z,1025.41
2018-09-29T09:32:57.304Z,1025.40
2018-09-29T09:33:57.257Z,1025.39
2018-09-29T09:34:57.212Z,1025.33
2018-09-29T09:35:57.172Z,1025.36
2018-09-29T09:36:57.122Z,1025.38
2018-09-29T09:37:57.082Z,1025.39
2018-09-29T09:38:57.032Z,1025.35
2018-09-29T09:39:56.986Z,1025.40
2018-09-29T09:40:56.941Z,1025.39
2018-09-29T09:41:56.895Z,1025.41
2018-09-29T09:42:56.850Z,1025.36
2018-09-29T09:43:56.805Z,1025.40
2018-09-29T09:44:56.869Z,1025.39
2018-09-29T09:45:56.715Z,1025.36
2018-09-29T09:46:56.669Z,1025.33
2018-09-29T09:47:56.627Z,1025.33
2018-09-29T09:48:56.580Z,1025.39
2018-09-29T09:49:56.533Z,1025.35
2018-09-29T09:50:56.490Z,1025.36
2018-09-29T09:51:56.443Z,1025.37
2018-09-29T09:52:56.399Z,1025.40
2018-09-29T09:53:56.352Z,1025.39
2018-09-29T09:54:56.307Z,1025.39
2018-09-29T09:55:56.313Z,1025.35
2018-09-29T09:56:56.216Z,1025.36
2018-09-29T09:57:56.170Z,1025.38
2018-09-29T09:58:56.125Z,1025.40
2018-09-29T09:59:56.080Z,1025.39
2018-09-29T10:00:56.035Z,1025.41
2018-09-29T10:01:55.990Z,1025.37
2018-09-29T10:02:55.944Z,1025.36
2018-09-29T10:03:55.899Z,1025.38
2018-09-29T10:04:55.857Z,1025.35
2018-09-29T10:05:55.811Z,1025.34
2018-09-29T10:06:55.762Z,1025.32
2018-09-29T10:07:55.717Z,1025.31
2018-09-29T10:08:55.673Z,1025.30
2018-09-29T10:09:55.631Z,1025.32
2018-09-29T10:10:55.581Z,1025.35
2018-09-29T10:11:55.535Z,1025.34
2018-09-29T10:12:55.490Z,1025.36
2018-09-29T10:13:55.444Z,1025.39
2018-09-29T10:14:55.399Z,1025.35
2018-09-29T10:15:55.354Z,1025.36
2018-09-29T10:16:55.308Z,1025.35
2018-09-29T10:17:55.262Z,1025.32
2018-09-29T10:18:55.217Z,1025.34
2018-09-29T10:19:55.171Z,1025.30
2018-09-29T10:20:55.126Z,1025.31
2018-09-29T10:21:55.080Z,1025.32
2018-09-29T10:22:55.035Z,1025.36
2018-09-29T10:23:54.989Z,1025.35
2018-09-29T10:24:54.994Z,1025.31
2018-09-29T10:25:54.898Z,1025.35
2018-09-29T10:26:54.853Z,1025.40
2018-09-29T10:27:54.809Z,1025.34
2018-09-29T10:28:54.765Z,1025.33
2018-09-29T10:29:54.719Z,1025.30
2018-09-29T10:30:54.673Z,1025.29
2018-09-29T10:31:54.629Z,1025.28
2018-09-29T10:32:54.580Z,1025.32
2018-09-29T10:33:54.534Z,1025.27
2018-09-29T10:34:54.489Z,1025.25
2018-09-29T10:35:54.445Z,1025.22
2018-09-29T10:36:54.403Z,1025.17
2018-09-29T10:37:54.352Z,1025.19
2018-09-29T10:38:54.311Z,1025.23
2018-09-29T10:39:54.263Z,1025.19
2018-09-29T10:40:54.216Z,1025.23
2018-09-29T10:41:54.170Z,1025.23
2018-09-29T10:42:54.125Z,1025.22
2018-09-29T10:43:54.079Z,1025.20
2018-09-29T10:44:54.036Z,1025.18
2018-09-29T10:45:53.988Z,1025.13
2018-09-29T10:46:53.943Z,1025.15
2018-09-29T10:47:53.897Z,1025.13
2018-09-29T10:48:53.852Z,1025.16
2018-09-29T10:49:53.805Z,1025.17
2018-09-29T10:50:53.761Z,1025.15
2018-09-29T10:51:53.715Z,1025.17
2018-09-29T10:52:53.688Z,1025.12
2018-09-29T10:53:53.623Z,1025.18
2018-09-29T10:54:53.578Z,1025.12
2018-09-29T10:55:53.536Z,1025.12
2018-09-29T10:56:53.541Z,1025.10
2018-09-29T10:57:53.441Z,1025.08
2018-09-29T10:58:53.397Z,1025.06
2018-09-29T10:59:53.350Z,1025.04
2018-09-29T11:00:53.306Z,1025.05
2018-09-29T11:01:53.259Z,1025.05
2018-09-29T11:02:53.213Z,1025.03
2018-09-29T11:03:53.168Z,1025.01
2018-09-29T11:04:53.148Z,1024.96
2018-09-29T11:05:53.077Z,1024.92
2018-09-29T11:06:53.031Z,1024.88
2018-09-29T11:07:52.987Z,1024.87
2018-09-29T11:08:52.941Z,1024.86
2018-09-29T11:09:52.895Z,1024.87
2018-09-29T11:10:52.849Z,1024.83
2018-09-29T11:11:52.803Z,1024.85
2018-09-29T11:12:52.758Z,1024.83
2018-09-29T11:13:52.723Z,1024.80
2018-09-29T11:14:52.667Z,1024.85
2018-09-29T11:15:52.672Z,1024.81
2018-09-29T11:16:52.576Z,1024.77
2018-09-29T11:17:52.530Z,1024.75
2018-09-29T11:18:52.541Z,1024.76
2018-09-29T11:19:52.439Z,1024.74
2018-09-29T11:20:52.446Z,1024.75
2018-09-29T11:21:52.347Z,1024.74
2018-09-29T11:22:52.302Z,1024.68
2018-09-29T11:23:52.257Z,1024.60
2018-09-29T11:24:52.214Z,1024.64
2018-09-29T11:25:52.169Z,1024.61
2018-09-29T11:26:52.121Z,1024.58
2018-09-29T11:27:52.231Z,1024.56
2018-09-29T11:28:52.029Z,1024.56
2018-09-29T11:29:51.983Z,1024.52
2018-09-29T11:30:51.937Z,1024.52
2018-09-29T11:31:51.895Z,1024.53
2018-09-29T11:32:51.846Z,1024.48
2018-09-29T11:33:51.800Z,1024.44
2018-09-29T11:34:51.757Z,1024.43
2018-09-29T11:35:51.709Z,1024.40
2018-09-29T11:36:51.664Z,1024.41
2018-09-29T11:37:51.618Z,1024.44
2018-09-29T11:38:51.572Z,1024.39
2018-09-29T11:39:51.527Z,1024.38
2018-09-29T11:40:51.481Z,1024.39
2018-09-29T11:41:51.435Z,1024.39
2018-09-29T11:42:51.390Z,1024.36
2018-09-29T11:43:51.345Z,1024.37
2018-09-29T11:44:51.311Z,1024.36
2018-09-29T11:45:51.252Z,1024.33
2018-09-29T11:46:51.208Z,1024.35
2018-09-29T11:47:51.168Z,1024.29
2018-09-29T11:48:51.116Z,1024.30
2018-09-29T11:49:51.073Z,1024.30
2018-09-29T11:50:51.025Z,1024.28
2018-09-29T11:51:50.979Z,1024.28
2018-09-29T11:52:50.934Z,1024.29
2018-09-29T11:53:50.889Z,1024.27
2018-09-29T11:54:50.842Z,1024.26
2018-09-29T11:55:50.797Z,1024.21
2018-09-29T11:56:50.751Z,1024.18
2018-09-29T11:57:50.709Z,1024.18
2018-09-29T11:58:50.661Z,1024.19
2018-09-29T11:59:50.615Z,1024.19
2018-09-29T12:00:50.569Z,1024.19
2018-09-29T12:01:50.601Z,1024.15
2018-09-29T12:02:50.477Z,1024.15
2018-09-29T12:03:50.432Z,1024.11
2018-09-29T12:04:50.387Z,1024.11